Wetterdaten: Woche 07.05.12 - 13.05.12 (KW19)
Datum Zeit Temperatur Luftfeuchte Luftdruck Niederschlag Windrichtung Sonnenschein Solar Wind
07.05.2012 00:00 7,5 C 94 % 1013,0 hPa 0,0 l/m N 0,00 h 0 W/m 2,1 km/h (1 Bft)
07.05.2012 01:00 6,7 C 96 % 1013,5 hPa 0,0 l/m N 0,00 h 0 W/m 0,4 km/h (0 Bft)
07.05.2012 02:00 6,3 C 96 % 1013,6 hPa 0,0 l/m N 0,00 h 0 W/m 0,0 km/h (0 Bft)
07.05.2012 03:00 5,9 C 96 % 1013,9 hPa 0,0 l/m N 0,00 h 0 W/m 0,1 km/h (0 Bft)
07.05.2012 04:00 6,2 C 97 % 1014,2 hPa 0,0 l/m N 0,00 h 0 W/m 0,0 km/h (0 Bft)
07.05.2012 05:00 6,5 C 97 % 1014,5 hPa 0,0 l/m N 0,00 h 0 W/m 0,8 km/h (0 Bft)
07.05.2012 06:00 6,9 C 98 % 1014,9 hPa 0,0 l/m N 0,00 h 15 W/m 0,5 km/h (0 Bft)
07.05.2012 07:00 7,5 C 98 % 1015,5 hPa 0,0 l/m N 0,00 h 54 W/m 1,5 km/h (1 Bft)
07.05.2012 08:00 8,6 C 97 % 1015,9 hPa 0,0 l/m N 0,00 h 80 W/m 2,4 km/h (1 Bft)
07.05.2012 09:00 10,0 C 93 % 1016,3 hPa 0,0 l/m S-SW 0,25 h 256 W/m 7,0 km/h (2 Bft)
07.05.2012 10:00 12,1 C 86 % 1016,3 hPa 0,0 l/m SW 0,75 h 505 W/m 12,2 km/h (2 Bft)
07.05.2012 11:00 13,9 C 78 % 1016,4 hPa 0,0 l/m SW 0,75 h 694 W/m 16,8 km/h (3 Bft)
07.05.2012 12:00 14,6 C 71 % 1016,2 hPa 0,0 l/m S 0,67 h 747 W/m 16,9 km/h (3 Bft)
07.05.2012 13:00 15,5 C 61 % 1016,3 hPa 0,0 l/m W-SW 0,50 h 576 W/m 18,6 km/h (3 Bft)
07.05.2012 14:00 14,8 C 60 % 1016,5 hPa 0,0 l/m N-NW 0,83 h 830 W/m 17,6 km/h (3 Bft)
07.05.2012 15:00 16,1 C 56 % 1016,1 hPa 0,0 l/m N 0,83 h 763 W/m 15,7 km/h (3 Bft)
07.05.2012 16:00 15,5 C 55 % 1015,8 hPa 0,0 l/m W-NW 0,33 h 414 W/m 11,7 km/h (2 Bft)
07.05.2012 17:00 16,0 C 53 % 1015,7 hPa 0,0 l/m W-NW 0,83 h 474 W/m 8,7 km/h (2 Bft)
07.05.2012 18:00 16,1 C 53 % 1015,5 hPa 0,0 l/m W 0,83 h 299 W/m 6,1 km/h (2 Bft)
07.05.2012 19:00 14,6 C 59 % 1015,4 hPa 0,0 l/m N 0,33 h 64 W/m 2,4 km/h (1 Bft)
07.05.2012 20:00 12,5 C 72 % 1015,9 hPa 0,0 l/m N 0,00 h 14 W/m 1,3 km/h (1 Bft)
07.05.2012 21:00 10,9 C 79 % 1016,2 hPa 0,0 l/m N 0,00 h 0 W/m 0,7 km/h (0 Bft)
07.05.2012 22:00 10,3 C 81 % 1016,6 hPa 0,0 l/m N 0,00 h 0 W/m 1,5 km/h (1 Bft)
07.05.2012 23:00 9,5 C 85 % 1016,6 hPa 0,0 l/m N 0,00 h 0 W/m 0,8 km/h (0 Bft)
08.05.2012 00:00 8,4 C 89 % 1016,4 hPa 0,0 l/m N 0,00 h 0 W/m 1,3 km/h (1 Bft)
08.05.2012 01:00 7,7 C 92 % 1016,1 hPa 0,0 l/m N 0,00 h 0 W/m 2,5 km/h (1 Bft)
08.05.2012 02:00 7,1 C 94 % 1015,8 hPa 0,0 l/m N 0,00 h 0 W/m 0,4 km/h (0 Bft)
08.05.2012 03:00 6,4 C 95 % 1015,5 hPa 0,0 l/m N 0,00 h 0 W/m 0,3 km/h (0 Bft)
08.05.2012 04:00 5,7 C 96 % 1015,8 hPa 0,0 l/m N 0,00 h 0 W/m 0,0 km/h (0 Bft)
08.05.2012 05:00 5,1 C 96 % 1015,6 hPa 0,0 l/m N 0,00 h 5 W/m 0,1 km/h (0 Bft)
08.05.2012 06:00 5,1 C 97 % 1015,6 hPa 0,0 l/m N 0,08 h 36 W/m 0,4 km/h (0 Bft)
08.05.2012 07:00 7,1 C 95 % 1015,9 hPa 0,0 l/m N 0,42 h 126 W/m 0,4 km/h (0 Bft)
08.05.2012 08:00 9,9 C 86 % 1015,8 hPa 0,0 l/m S 1,00 h 346 W/m 4,8 km/h (1 Bft)
08.05.2012 09:00 13,2 C 75 % 1015,7 hPa 0,0 l/m S 1,00 h 526 W/m 6,9 km/h (2 Bft)
08.05.2012 10:00 15,6 C 66 % 1015,3 hPa 0,0 l/m S-SW 1,00 h 682 W/m 11,2 km/h (2 Bft)
08.05.2012 11:00 17,4 C 57 % 1014,8 hPa 0,0 l/m SW 1,00 h 784 W/m 13,6 km/h (3 Bft)
08.05.2012 12:00 18,8 C 50 % 1014,3 hPa 0,0 l/m S-SW 1,00 h 884 W/m 15,0 km/h (3 Bft)
08.05.2012 13:00 19,9 C 41 % 1013,9 hPa 0,0 l/m W-SW 1,00 h 888 W/m 18,8 km/h (3 Bft)
08.05.2012 14:00 20,3 C 37 % 1013,5 hPa 0,0 l/m W 1,00 h 735 W/m 20,8 km/h (4 Bft)
08.05.2012 15:00 20,1 C 38 % 1013,3 hPa 0,0 l/m W-SW 0,83 h 483 W/m 19,3 km/h (3 Bft)
08.05.2012 16:00 19,6 C 40 % 1013,1 hPa 0,0 l/m W-NW 0,50 h 351 W/m 16,6 km/h (3 Bft)
08.05.2012 17:00 19,0 C 42 % 1013,0 hPa 0,0 l/m W-SW 0,00 h 146 W/m 15,0 km/h (3 Bft)
08.05.2012 18:00 18,4 C 44 % 1012,9 hPa 0,0 l/m W-NW 0,00 h 125 W/m 10,6 km/h (2 Bft)
08.05.2012 19:00 17,8 C 45 % 1012,9 hPa 0,0 l/m W-NW 0,00 h 54 W/m 7,1 km/h (2 Bft)
08.05.2012 20:00 16,6 C 52 % 1013,1 hPa 0,0 l/m N 0,00 h 12 W/m 2,8 km/h (1 Bft)
08.05.2012 21:00 14,7 C 64 % 1013,6 hPa 0,0 l/m W-NW 0,00 h 0 W/m 1,3 km/h (1 Bft)
08.05.2012 22:00 14,8 C 61 % 1013,9 hPa 0,0 l/m W-NW 0,00 h 0 W/m 11,9 km/h (2 Bft)
08.05.2012 23:00 13,9 C 67 % 1014,2 hPa 0,0 l/m W-NW 0,00 h 0 W/m 13,0 km/h (3 Bft)
09.05.2012 00:00 12,8 C 80 % 1014,5 hPa 0,0 l/m SW 0,00 h 0 W/m 8,6 km/h (2 Bft)
09.05.2012 01:00 11,8 C 89 % 1014,4 hPa 0,0 l/m S-SW 0,00 h 0 W/m 6,6 km/h (2 Bft)
09.05.2012 02:00 11,6 C 90 % 1014,3 hPa 0,0 l/m SW 0,00 h 0 W/m 3,9 km/h (1 Bft)
09.05.2012 03:00 11,6 C 90 % 1014,2 hPa 0,0 l/m W-SW 0,00 h 0 W/m 8,6 km/h (2 Bft)
09.05.2012 04:00 12,0 C 87 % 1014,1 hPa 0,0 l/m W-SW 0,00 h 0 W/m 14,4 km/h (3 Bft)
09.05.2012 05:00 11,8 C 89 % 1014,2 hPa 0,0 l/m SW 0,00 h 0 W/m 12,2 km/h (2 Bft)
09.05.2012 06:00 11,7 C 90 % 1014,7 hPa 0,0 l/m SW 0,00 h 27 W/m 10,9 km/h (2 Bft)
09.05.2012 07:00 12,4 C 89 % 1014,9 hPa 0,0 l/m SW 0,00 h 87 W/m 11,7 km/h (2 Bft)
09.05.2012 08:00 13,4 C 87 % 1015,0 hPa 0,0 l/m SW 0,50 h 254 W/m 12,0 km/h (2 Bft)
09.05.2012 09:00 15,0 C 80 % 1015,1 hPa 0,0 l/m S-SW 0,75 h 457 W/m 18,6 km/h (3 Bft)
09.05.2012 10:00 15,6 C 77 % 1015,5 hPa 0,0 l/m W-SW 0,00 h 276 W/m 23,2 km/h (4 Bft)
09.05.2012 11:00 17,1 C 74 % 1015,5 hPa 0,0 l/m W-SW 0,67 h 666 W/m 28,4 km/h (4 Bft)
09.05.2012 12:00 17,8 C 69 % 1015,7 hPa 0,0 l/m W 0,00 h 337 W/m 27,6 km/h (4 Bft)
09.05.2012 13:00 16,8 C 76 % 1016,1 hPa 0,2 l/m W-SW 0,00 h 209 W/m 21,1 km/h (4 Bft)
09.05.2012 14:00 16,2 C 84 % 1016,5 hPa 0,2 l/m W-SW 0,00 h 251 W/m 20,1 km/h (4 Bft)
09.05.2012 15:00 17,3 C 78 % 1016,6 hPa 0,0 l/m W 0,33 h 390 W/m 20,8 km/h (4 Bft)
09.05.2012 16:00 17,9 C 75 % 1016,6 hPa 0,0 l/m W-SW 0,25 h 341 W/m 21,7 km/h (4 Bft)
09.05.2012 17:00 18,4 C 72 % 1016,9 hPa 0,0 l/m W 0,33 h 278 W/m 18,0 km/h (3 Bft)
09.05.2012 18:00 18,6 C 72 % 1017,2 hPa 0,0 l/m W-SW 1,00 h 278 W/m 16,9 km/h (3 Bft)
09.05.2012 19:00 17,6 C 76 % 1017,5 hPa 0,0 l/m W-SW 0,00 h 36 W/m 12,2 km/h (2 Bft)
09.05.2012 20:00 16,8 C 80 % 1017,7 hPa 0,0 l/m SW 0,00 h 14 W/m 8,2 km/h (2 Bft)
09.05.2012 21:00 16,1 C 84 % 1018,3 hPa 0,0 l/m SW 0,00 h 0 W/m 8,7 km/h (2 Bft)
09.05.2012 22:00 15,8 C 85 % 1018,8 hPa 0,0 l/m W-SW 0,00 h 0 W/m 12,9 km/h (3 Bft)
09.05.2012 23:00 14,8 C 86 % 1019,2 hPa 0,0 l/m SW 0,00 h 0 W/m 5,9 km/h (2 Bft)
10.05.2012 00:00 13,9 C 89 % 1019,5 hPa 0,0 l/m S-SW 0,00 h 0 W/m 3,3 km/h (1 Bft)
10.05.2012 01:00 12,5 C 93 % 1019,6 hPa 0,0 l/m N 0,00 h 0 W/m 0,8 km/h (0 Bft)
10.05.2012 02:00 11,5 C 95 % 1019,7 hPa 0,0 l/m N 0,00 h 0 W/m 0,1 km/h (0 Bft)
10.05.2012 03:00 10,8 C 96 % 1019,9 hPa 0,0 l/m N 0,00 h 0 W/m 0,5 km/h (0 Bft)
10.05.2012 04:00 10,5 C 97 % 1020,1 hPa 0,0 l/m N 0,00 h 0 W/m 0,3 km/h (0 Bft)
10.05.2012 05:00 9,6 C 97 % 1020,1 hPa 0,0 l/m N 0,00 h 6 W/m 0,1 km/h (0 Bft)
10.05.2012 06:00 9,7 C 98 % 1020,5 hPa 0,0 l/m N 0,08 h 30 W/m 0,0 km/h (0 Bft)
10.05.2012 07:00 10,9 C 99 % 1020,9 hPa 0,0 l/m N 0,75 h 176 W/m 0,7 km/h (0 Bft)
10.05.2012 08:00 15,0 C 88 % 1021,2 hPa 0,0 l/m S-SO 0,92 h 363 W/m 6,0 km/h (2 Bft)
10.05.2012 09:00 18,0 C 73 % 1021,6 hPa 0,0 l/m S 0,83 h 412 W/m 9,9 km/h (2 Bft)
10.05.2012 10:00 19,8 C 64 % 1021,6 hPa 0,0 l/m S 1,00 h 618 W/m 12,0 km/h (2 Bft)
10.05.2012 11:00 22,4 C 56 % 1021,4 hPa 0,0 l/m S-SW 1,00 h 784 W/m 14,8 km/h (3 Bft)
10.05.2012 12:00 24,0 C 49 % 1020,9 hPa 0,0 l/m S-SW 1,00 h 832 W/m 18,8 km/h (3 Bft)
10.05.2012 13:00 24,6 C 47 % 1020,4 hPa 0,0 l/m SW 0,83 h 674 W/m 15,6 km/h (3 Bft)
10.05.2012 14:00 25,4 C 44 % 1020,1 hPa 0,0 l/m W-SW 0,83 h 762 W/m 18,5 km/h (3 Bft)
10.05.2012 15:00 26,1 C 38 % 1020,0 hPa 0,0 l/m W-SW 1,00 h 764 W/m 21,0 km/h (4 Bft)
10.05.2012 16:00 26,3 C 38 % 1019,7 hPa 0,0 l/m W-SW 1,00 h 596 W/m 20,0 km/h (4 Bft)
10.05.2012 17:00 26,1 C 38 % 1019,4 hPa 0,0 l/m W-SW 1,00 h 520 W/m 18,5 km/h (3 Bft)
10.05.2012 18:00 25,7 C 37 % 1019,3 hPa 0,0 l/m SW 1,00 h 360 W/m 20,8 km/h (4 Bft)
10.05.2012 19:00 24,3 C 42 % 1019,5 hPa 0,0 l/m W-SW 0,92 h 140 W/m 14,1 km/h (3 Bft)
10.05.2012 20:00 21,9 C 53 % 1019,8 hPa 0,0 l/m W 0,08 h 22 W/m 5,2 km/h (1 Bft)
10.05.2012 21:00 18,7 C 66 % 1020,2 hPa 0,0 l/m N 0,00 h 0 W/m 0,5 km/h (0 Bft)
10.05.2012 22:00 16,9 C 74 % 1020,5 hPa 0,0 l/m N 0,00 h 0 W/m 0,1 km/h (0 Bft)
10.05.2012 23:00 15,4 C 82 % 1020,6 hPa 0,0 l/m N 0,00 h 0 W/m 0,0 km/h (0 Bft)
11.05.2012 00:00 14,6 C 86 % 1020,9 hPa 0,0 l/m N 0,00 h 0 W/m 0,0 km/h (0 Bft)
11.05.2012 01:00 13,9 C 88 % 1021,1 hPa 0,0 l/m N 0,00 h 0 W/m 0,0 km/h (0 Bft)
11.05.2012 02:00 13,2 C 90 % 1021,2 hPa 0,0 l/m N 0,00 h 0 W/m 0,0 km/h (0 Bft)
11.05.2012 03:00 12,6 C 92 % 1021,3 hPa 0,0 l/m N 0,00 h 0 W/m 0,0 km/h (0 Bft)
11.05.2012 04:00 12,3 C 92 % 1021,5 hPa 0,0 l/m N 0,00 h 0 W/m 0,3 km/h (0 Bft)
11.05.2012 05:00 12,0 C 92 % 1021,8 hPa 0,0 l/m N 0,00 h 7 W/m 0,1 km/h (0 Bft)
11.05.2012 06:00 12,0 C 92 % 1021,9 hPa 0,0 l/m N 0,00 h 39 W/m 0,0 km/h (0 Bft)
11.05.2012 07:00 14,9 C 81 % 1022,1 hPa 0,0 l/m N 0,83 h 196 W/m 0,0 km/h (0 Bft)
11.05.2012 08:00 18,4 C 68 % 1022,1 hPa 0,0 l/m SW 0,83 h 302 W/m 5,8 km/h (2 Bft)
11.05.2012 09:00 20,9 C 56 % 1021,9 hPa 0,0 l/m S-SW 1,00 h 525 W/m 11,4 km/h (2 Bft)
11.05.2012 10:00 23,1 C 50 % 1021,5 hPa 0,0 l/m SW 0,83 h 621 W/m 13,8 km/h (3 Bft)
11.05.2012 11:00 24,3 C 50 % 1021,1 hPa 0,0 l/m S-SW 0,75 h 556 W/m 15,2 km/h (3 Bft)
11.05.2012 12:00 26,1 C 47 % 1020,6 hPa 0,0 l/m S-SW 1,00 h 720 W/m 14,0 km/h (3 Bft)
11.05.2012 13:00 27,5 C 42 % 1020,0 hPa 0,0 l/m S 1,00 h 794 W/m 15,4 km/h (3 Bft)
11.05.2012 14:00 28,6 C 36 % 1019,7 hPa 0,0 l/m W-SW 1,00 h 817 W/m 15,6 km/h (3 Bft)
11.05.2012 15:00 29,0 C 34 % 1019,3 hPa 0,0 l/m W 1,00 h 757 W/m 17,2 km/h (3 Bft)
11.05.2012 16:00 29,1 C 32 % 1018,9 hPa 0,0 l/m W-SW 1,00 h 641 W/m 16,9 km/h (3 Bft)
11.05.2012 17:00 28,8 C 32 % 1018,5 hPa 0,0 l/m W-SW 1,00 h 491 W/m 17,4 km/h (3 Bft)
11.05.2012 18:00 28,1 C 33 % 1018,0 hPa 0,0 l/m W-SW 1,00 h 360 W/m 16,8 km/h (3 Bft)
11.05.2012 19:00 26,3 C 39 % 1017,6 hPa 0,0 l/m W-SW 0,92 h 156 W/m 11,8 km/h (2 Bft)
11.05.2012 20:00 23,3 C 49 % 1018,1 hPa 0,0 l/m W-SW 0,00 h 10 W/m 6,4 km/h (2 Bft)
11.05.2012 21:00 20,6 C 57 % 1018,4 hPa 0,0 l/m W-SW 0,00 h 0 W/m 6,5 km/h (2 Bft)
11.05.2012 22:00 21,3 C 53 % 1018,8 hPa 0,0 l/m W-SW 0,00 h 0 W/m 9,7 km/h (2 Bft)
11.05.2012 23:00 21,7 C 53 % 1019,1 hPa 0,0 l/m W 0,00 h 0 W/m 10,6 km/h (2 Bft)
12.05.2012 00:00 19,9 C 69 % 1019,4 hPa 0,0 l/m N-NW 0,00 h 0 W/m 4,8 km/h (1 Bft)
12.05.2012 01:00 18,2 C 79 % 1019,3 hPa 0,0 l/m N-NO 0,00 h 0 W/m 10,1 km/h (2 Bft)
12.05.2012 02:00 17,2 C 86 % 1019,8 hPa 0,2 l/m N 0,00 h 0 W/m 14,2 km/h (3 Bft)
12.05.2012 03:00 16,3 C 93 % 1020,2 hPa 0,6 l/m N-NO 0,00 h 0 W/m 4,4 km/h (1 Bft)
12.05.2012 04:00 16,0 C 96 % 1020,4 hPa 3,6 l/m W-NW 0,00 h 0 W/m 3,1 km/h (1 Bft)
12.05.2012 05:00 15,8 C 97 % 1020,3 hPa 0,4 l/m W-NW 0,00 h 0 W/m 2,3 km/h (1 Bft)
12.05.2012 06:00 13,8 C 96 % 1021,1 hPa 0,0 l/m N 0,00 h 6 W/m 17,0 km/h (3 Bft)
12.05.2012 07:00 11,1 C 95 % 1022,4 hPa 0,0 l/m N-NO 0,00 h 12 W/m 19,2 km/h (3 Bft)
12.05.2012 08:00 10,5 C 94 % 1023,2 hPa 0,0 l/m N-NO 0,00 h 25 W/m 14,8 km/h (3 Bft)
12.05.2012 09:00 10,2 C 94 % 1023,9 hPa 2,8 l/m N-NO 0,00 h 33 W/m 13,7 km/h (3 Bft)
12.05.2012 10:00 10,0 C 95 % 1024,6 hPa 2,2 l/m N-NO 0,00 h 74 W/m 11,4 km/h (2 Bft)
12.05.2012 11:00 10,4 C 92 % 1025,4 hPa 0,2 l/m NO 0,00 h 71 W/m 9,8 km/h (2 Bft)
12.05.2012 12:00 10,1 C 93 % 1026,2 hPa 0,8 l/m N-NO 0,00 h 51 W/m 6,4 km/h (2 Bft)
12.05.2012 13:00 9,8 C 93 % 1027,0 hPa 1,2 l/m N-NW 0,00 h 101 W/m 11,6 km/h (2 Bft)
12.05.2012 14:00 9,1 C 92 % 1027,7 hPa 0,8 l/m N 0,00 h 110 W/m 8,6 km/h (2 Bft)
12.05.2012 15:00 9,4 C 92 % 1028,0 hPa 0,2 l/m N-NW 0,00 h 70 W/m 6,8 km/h (2 Bft)
12.05.2012 16:00 9,6 C 91 % 1028,3 hPa 0,2 l/m N-NW 0,00 h 85 W/m 2,8 km/h (1 Bft)
12.05.2012 17:00 9,8 C 91 % 1028,5 hPa 0,0 l/m N-NW 0,00 h 81 W/m 2,7 km/h (1 Bft)
12.05.2012 18:00 9,6 C 89 % 1028,6 hPa 0,0 l/m W 0,00 h 79 W/m 3,6 km/h (1 Bft)
12.05.2012 19:00 9,8 C 87 % 1028,6 hPa 0,0 l/m W 0,42 h 91 W/m 3,2 km/h (1 Bft)
12.05.2012 20:00 8,8 C 92 % 1029,1 hPa 0,0 l/m N 0,00 h 16 W/m 1,5 km/h (1 Bft)
12.05.2012 21:00 8,1 C 95 % 1029,4 hPa 0,0 l/m N 0,00 h 0 W/m 1,6 km/h (1 Bft)
12.05.2012 22:00 8,0 C 95 % 1029,5 hPa 0,0 l/m N 0,00 h 0 W/m 0,8 km/h (0 Bft)
12.05.2012 23:00 7,2 C 96 % 1029,5 hPa 0,0 l/m W 0,00 h 0 W/m 2,9 km/h (1 Bft)
13.05.2012 00:00 6,4 C 95 % 1029,2 hPa 0,0 l/m W 0,00 h 0 W/m 3,2 km/h (1 Bft)
13.05.2012 01:00 6,1 C 94 % 1029,0 hPa 0,0 l/m N 0,00 h 0 W/m 4,4 km/h (1 Bft)
13.05.2012 02:00 5,9 C 93 % 1028,8 hPa 0,0 l/m W 0,00 h 0 W/m 4,8 km/h (1 Bft)
13.05.2012 03:00 5,8 C 92 % 1028,6 hPa 0,0 l/m NW 0,00 h 0 W/m 5,3 km/h (1 Bft)
13.05.2012 04:00 5,3 C 93 % 1028,0 hPa 0,0 l/m N 0,00 h 0 W/m 7,2 km/h (2 Bft)
13.05.2012 05:00 4,8 C 93 % 1027,8 hPa 0,0 l/m N 0,00 h 6 W/m 8,2 km/h (2 Bft)
13.05.2012 06:00 4,6 C 92 % 1027,8 hPa 0,0 l/m N-NO 0,17 h 43 W/m 8,4 km/h (2 Bft)
13.05.2012 07:00 5,5 C 86 % 1028,0 hPa 0,0 l/m NO 1,00 h 182 W/m 14,1 km/h (3 Bft)
13.05.2012 08:00 7,0 C 81 % 1027,9 hPa 0,0 l/m O-NO 1,00 h 358 W/m 15,8 km/h (3 Bft)
13.05.2012 09:00 8,5 C 75 % 1027,6 hPa 0,0 l/m O-NO 1,00 h 535 W/m 17,2 km/h (3 Bft)
13.05.2012 10:00 9,5 C 68 % 1027,1 hPa 0,0 l/m NO 0,42 h 382 W/m 16,8 km/h (3 Bft)
13.05.2012 11:00 10,8 C 56 % 1026,8 hPa 0,0 l/m O 0,42 h 565 W/m 21,6 km/h (4 Bft)
13.05.2012 12:00 10,5 C 56 % 1026,5 hPa 0,0 l/m NO 0,00 h 279 W/m 19,8 km/h (4 Bft)
13.05.2012 13:00 10,7 C 52 % 1026,0 hPa 0,0 l/m O-NO 0,00 h 265 W/m 18,9 km/h (3 Bft)
13.05.2012 14:00 11,7 C 47 % 1025,3 hPa 0,0 l/m NO 0,42 h 482 W/m 18,1 km/h (3 Bft)
13.05.2012 15:00 12,2 C 45 % 1024,6 hPa 0,0 l/m O-NO 0,33 h 446 W/m 18,4 km/h (3 Bft)
13.05.2012 16:00 12,1 C 44 % 1024,1 hPa 0,0 l/m NO 0,25 h 352 W/m 18,8 km/h (3 Bft)
13.05.2012 17:00 12,4 C 42 % 1023,8 hPa 0,0 l/m O-NO 0,58 h 410 W/m 19,4 km/h (3 Bft)
13.05.2012 18:00 12,3 C 43 % 1023,6 hPa 0,0 l/m NO 0,83 h 360 W/m 16,6 km/h (3 Bft)
13.05.2012 19:00 11,5 C 45 % 1023,4 hPa 0,0 l/m NO 0,83 h 179 W/m 14,2 km/h (3 Bft)
13.05.2012 20:00 10,0 C 50 % 1023,3 hPa 0,0 l/m NO 0,08 h 17 W/m 8,3 km/h (2 Bft)
13.05.2012 21:00 7,3 C 65 % 1023,6 hPa 0,0 l/m NO 0,00 h 0 W/m 3,3 km/h (1 Bft)
13.05.2012 22:00 5,7 C 75 % 1023,6 hPa 0,0 l/m NO 0,00 h 0 W/m 2,0 km/h (1 Bft)
13.05.2012 23:00 4,9 C 76 % 1023,4 hPa 0,0 l/m NO 0,00 h 0 W/m 3,3 km/h (1 Bft)
Min-Datum _ 13.05.12 11.05.12 08.05.12 - - - - 07.05.12
_ Min-Zeit 06:10 16:05 19:55 - - - - 00:20
Minimum _ 4,4 C 31 % 1012,7 hPa - - - - 0,0 km/h (0 Bft)
Max-Datum _ 11.05.12 08.05.12 12.05.12 12.05.12 - 07.05.12 13.05.12 09.05.12
_ Max-Zeit 16:05 04:20 21:25 04:25 - 09:45 14:00 12:00
Maximum _ 29,4 C 100 % 1029,6 hPa 3,6 l/m - 0,08 h 1090 W/m 35,4 km/h
W-SW (5 Bft)
Durchschnitt _ 14,1 C 74 % 1019,7 hPa #13,6 l/m W-SW #51:45 h 327 W/m 9,3 km/h (2 Bft)